Juneau, WI

9:50 AM CDT on March 27, 2017 (GMT -0500)
Dodge County

Weather History for KUNU - February, 2013

Change the Weather History Date:

Monday, February 18, 2013

  Actual Average Record
Temperature  
Mean Temperature 34 °F -  
Max Temperature 41 °F 31 °F 57 °F (1981)
Min Temperature 26 °F 17 °F -16 °F (2006)
Degree Days  
Heating Degree Days 32    
Moisture  
Dew Point 25 °F    
Average Humidity 73    
Maximum Humidity 100    
Minimum Humidity 55    
Precipitation  
Precipitation 0.18 in - - ()
Sea Level Pressure  
Sea Level Pressure 29.61 in    
Wind  
Wind Speed 13 mph (South)    
Max Wind Speed 18 mph    
Max Gust Speed 23 mph    
Visibility 8 miles    
Events Rain , Snow    
Averages and records for this station are not official NWS values.
T = Trace of Precipitation, MM = Missing Value Source: NWS Daily Summary

Daily Weather History Graph

Daily Weather History Graph

Search for Another Location

Airport or City:

Trip Planner

Search our weather history database for the weather conditions in past years. The results will help you decide how hot, cold, wet, or windy it might be!

Date:

Astronomy

Feb. 18, 2013 Rise Set
Actual Time 6:48 AM CST 5:29 PM CST
Civil Twilight 6:19 AM CST 5:58 PM CST
Nautical Twilight 5:45 AM CST 6:32 PM CST
Astronomical Twilight 5:12 AM CST 7:05 PM CST
Moon 11:10 AM CST (2/18) 1:32 AM CST (2/18)
Length of Visible Light 11h 39m
Length of Day
10h 41m
First Quarter, 58% of the Moon is Illuminated
Feb 18
First Quarter
Feb 25
Full
Mar 4
Last Quarter
Mar 11
New
Mar 19
First Quarter

Hourly Weather History & Observations

Time (CST) Temp. Windchill Dew Point Humidity Pressure Visibility Wind Dir Wind Speed Gust Speed Precip Events Conditions
12:15 AM 26.6 °F 14.3 °F 12.2 °F 55% 29.91 in 10.0 mi SE 16.1 mph - N/A   Clear
12:35 AM 26.6 °F 13.8 °F 12.2 °F 55% 29.90 in 10.0 mi SE 17.3 mph 23.0 mph N/A   Clear
12:55 AM 26.6 °F 14.3 °F 12.2 °F 55% 29.90 in 10.0 mi SE 16.1 mph - N/A   Clear
1:15 AM 26.6 °F 14.3 °F 12.2 °F 55% 29.89 in 10.0 mi SE 16.1 mph - N/A   Clear
1:35 AM 26.6 °F 14.7 °F 12.2 °F 55% 29.88 in 10.0 mi SE 15.0 mph - N/A   Clear
1:55 AM 26.6 °F 14.3 °F 12.2 °F 55% 29.86 in 10.0 mi SE 16.1 mph 21.9 mph N/A   Clear
2:15 AM 26.6 °F 14.3 °F 12.2 °F 55% 29.85 in 10.0 mi SE 16.1 mph - N/A   Clear
2:35 AM 26.6 °F 14.3 °F 14.0 °F 59% 29.83 in 10.0 mi SE 16.1 mph - N/A   Clear
2:55 AM 26.6 °F 14.3 °F 14.0 °F 59% 29.82 in 10.0 mi SE 16.1 mph - N/A   Clear
3:15 AM 26.6 °F 13.4 °F 14.0 °F 59% 29.80 in 10.0 mi SE 18.4 mph - N/A   Clear
3:35 AM 26.6 °F 13.4 °F 14.0 °F 59% 29.77 in 10.0 mi SE 18.4 mph - N/A   Clear
3:55 AM 26.6 °F 13.8 °F 14.0 °F 59% 29.76 in 10.0 mi SE 17.3 mph - N/A   Clear
4:15 AM 26.6 °F 13.8 °F 14.0 °F 59% 29.75 in 10.0 mi SE 17.3 mph - N/A   Clear
4:35 AM 26.6 °F 15.2 °F 15.8 °F 64% 29.75 in 10.0 mi SE 13.8 mph - N/A   Clear
4:55 AM 28.4 °F 16.6 °F 15.8 °F 59% 29.74 in 10.0 mi SE 16.1 mph - N/A   Clear
5:15 AM 28.4 °F 16.6 °F 15.8 °F 59% 29.73 in 10.0 mi SE 16.1 mph - N/A   Clear
5:35 AM 28.4 °F 16.6 °F 17.6 °F 64% 29.72 in 10.0 mi SE 16.1 mph - N/A   Clear
5:55 AM 28.4 °F 17.0 °F 17.6 °F 64% 29.71 in 10.0 mi SE 15.0 mph - N/A   Clear
6:15 AM 28.4 °F 17.5 °F 17.6 °F 64% 29.71 in 10.0 mi SSE 13.8 mph 20.7 mph N/A   Clear
6:35 AM 28.4 °F 18.5 °F 17.6 °F 64% 29.70 in 10.0 mi SE 11.5 mph - N/A   Clear
6:55 AM 28.4 °F 19.7 °F 17.6 °F 64% 29.70 in 10.0 mi SE 9.2 mph - N/A   Clear
7:15 AM 26.6 °F 16.8 °F 17.6 °F 69% 29.69 in 10.0 mi SE 10.4 mph - N/A   Clear
7:35 AM 26.6 °F 16.8 °F 17.6 °F 69% 29.69 in 10.0 mi SE 10.4 mph - N/A   Clear
7:55 AM 28.4 °F 19.1 °F 17.6 °F 64% 29.69 in 10.0 mi SE 10.4 mph - N/A   Clear
8:15 AM 28.4 °F 19.7 °F 17.6 °F 64% 29.67 in 10.0 mi SE 9.2 mph - N/A   Clear
8:35 AM 28.4 °F 20.4 °F 19.4 °F 69% 29.67 in 10.0 mi SE 8.1 mph - N/A   Clear
8:55 AM 30.2 °F 21.3 °F 21.2 °F 69% 29.67 in 10.0 mi SSE 10.4 mph - N/A   Clear
9:15 AM 32.0 °F 24.2 °F 21.2 °F 64% 29.65 in 10.0 mi SSE 9.2 mph - N/A   Clear
9:35 AM 33.8 °F 24.8 °F 23.0 °F 65% 29.65 in 10.0 mi South 12.7 mph 16.1 mph N/A   Clear
9:55 AM 33.8 °F 24.3 °F 24.8 °F 70% 29.64 in 10.0 mi SSE 13.8 mph 18.4 mph N/A   Clear
10:15 AM 35.6 °F 25.5 °F 24.8 °F 65% 29.63 in 10.0 mi SSE 17.3 mph - N/A   Clear
10:35 AM 35.6 °F 26.2 °F 26.6 °F 70% 29.63 in 10.0 mi South 15.0 mph - N/A   Clear
10:55 AM 35.6 °F 25.5 °F 26.6 °F 70% 29.63 in 10.0 mi South 17.3 mph 21.9 mph N/A   Clear
11:15 AM 37.4 °F 28.5 °F 26.6 °F 65% 29.61 in 10.0 mi South 15.0 mph 19.6 mph N/A   Clear
11:35 AM 37.4 °F 29.3 °F 26.6 °F 65% 29.60 in 10.0 mi South 12.7 mph - N/A   Clear
11:55 AM 37.4 °F 28.9 °F 28.4 °F 70% 29.59 in 10.0 mi South 13.8 mph - N/A   Clear
12:15 PM 37.4 °F 29.8 °F 28.4 °F 70% 29.57 in 10.0 mi South 11.5 mph - N/A   Clear
12:35 PM 39.2 °F 31.2 °F 28.4 °F 65% 29.57 in 10.0 mi South 13.8 mph - N/A   Clear
12:55 PM 39.2 °F 32.5 °F 28.4 °F 65% 29.56 in 10.0 mi South 10.4 mph - N/A   Clear
1:15 PM 41.0 °F 35.2 °F 30.2 °F 65% 29.55 in 10.0 mi South 9.2 mph - N/A   Clear
1:35 PM 41.0 °F 34.3 °F 30.2 °F 65% 29.54 in 10.0 mi SSE 11.5 mph - N/A   Clear
1:55 PM 41.0 °F 33.9 °F 30.2 °F 65% 29.54 in 10.0 mi South 12.7 mph - N/A   Clear
2:15 PM 41.0 °F 35.2 °F 30.2 °F 65% 29.53 in 10.0 mi South 9.2 mph - N/A   Clear
2:35 PM 41.0 °F 33.5 °F 32.0 °F 70% 29.53 in 10.0 mi South 13.8 mph - N/A   Scattered Clouds
2:55 PM 41.0 °F 33.9 °F 32.0 °F 70% 29.53 in 10.0 mi South 12.7 mph 17.3 mph N/A   Mostly Cloudy
3:15 PM 41.0 °F 35.8 °F 32.0 °F 70% 29.52 in 10.0 mi South 8.1 mph - N/A   Overcast
3:35 PM 41.0 °F 35.2 °F 32.0 °F 70% 29.49 in 10.0 mi SE 9.2 mph - N/A   Overcast
3:55 PM 41.0 °F 35.8 °F 32.0 °F 70% 29.49 in 10.0 mi SE 8.1 mph - N/A   Overcast
4:15 PM 39.2 °F 33.6 °F 32.0 °F 75% 29.48 in 10.0 mi SE 8.1 mph - N/A   Overcast
4:35 PM 41.0 °F 35.8 °F 32.0 °F 70% 29.47 in 10.0 mi SSE 8.1 mph - N/A   Overcast
4:55 PM 41.0 °F 34.7 °F 33.8 °F 76% 29.47 in 10.0 mi SSE 10.4 mph - N/A   Overcast
5:15 PM 41.0 °F 35.8 °F 33.8 °F 76% 29.47 in 10.0 mi South 8.1 mph - N/A   Overcast
5:35 PM 39.2 °F 35.0 °F 33.8 °F 81% 29.47 in 10.0 mi South 5.8 mph - N/A   Drizzle
5:55 PM 37.4 °F 34.9 °F 33.8 °F 87% 29.47 in 10.0 mi WNW 3.5 mph - N/A   Light Drizzle
6:15 PM 37.4 °F - 33.8 °F 87% 29.47 in 7.0 mi Calm Calm - N/A Rain Rain
6:35 PM 37.4 °F 34.9 °F 35.6 °F 93% 29.47 in 4.0 mi WNW 3.5 mph - 0.02 in Rain Light Rain
6:55 PM 35.6 °F 30.7 °F 35.6 °F 100% 29.47 in 3.0 mi NW 5.8 mph - 0.04 in Rain Rain
7:15 PM 35.6 °F 30.7 °F 33.8 °F 93% 29.47 in 4.0 mi WNW 5.8 mph - 0.02 in Rain Rain
7:35 PM 33.8 °F 26.4 °F 32.0 °F 93% 29.46 in 4.0 mi NW 9.2 mph 16.1 mph 0.03 in Rain Rain
7:55 PM 33.8 °F 28.6 °F 32.0 °F 93% 29.46 in 2.0 mi WNW 5.8 mph - 0.05 in Snow Light Snow
8:15 PM 32.0 °F 26.4 °F 32.0 °F 100% 29.45 in 0.8 mi WNW 5.8 mph - 0.03 in Snow Light Snow
8:35 PM 32.0 °F 26.4 °F 32.0 °F 100% 29.44 in 0.2 mi NW 5.8 mph - 0.05 in Snow Snow
8:55 PM 32.0 °F 25.6 °F 32.0 °F 100% 29.44 in 0.5 mi WNW 6.9 mph - 0.07 in Snow Light Snow
9:15 PM 32.0 °F 25.6 °F 32.0 °F 100% 29.44 in 0.5 mi WNW 6.9 mph - 0.01 in Snow Light Snow
9:35 PM 32.0 °F 25.6 °F 32.0 °F 100% 29.44 in 0.8 mi WNW 6.9 mph - 0.02 in Snow Light Snow
9:55 PM 32.0 °F 24.8 °F 32.0 °F 100% 29.44 in 1.5 mi WNW 8.1 mph - 0.02 in Snow Light Snow
10:15 PM 32.0 °F 23.6 °F 32.0 °F 100% 29.44 in 1.0 mi WNW 10.4 mph - N/A Snow Light Snow
10:35 PM 32.0 °F 24.2 °F 32.0 °F 100% 29.45 in 1.0 mi West 9.2 mph 17.3 mph N/A Snow Light Snow
10:55 PM 32.0 °F 24.8 °F 32.0 °F 100% 29.46 in 1.0 mi West 8.1 mph 17.3 mph N/A Snow Light Snow
11:15 PM 30.2 °F 21.9 °F 30.2 °F 100% 29.47 in 0.8 mi West 9.2 mph 17.3 mph N/A Snow Light Snow
11:35 PM 28.4 °F 17.0 °F 28.4 °F 100% 29.48 in 1.0 mi West 15.0 mph 21.9 mph N/A Snow Light Snow
11:55 PM 28.4 °F 18.0 °F 26.6 °F 93% 29.50 in 1.0 mi West 12.7 mph 21.9 mph N/A Snow Light Snow